sensor_id;sensor_type;location;lat;lon;timestamp;temperature;humidity
12634;DHT22;6382;48.614;8.880;2023-02-28T00:00:27;-2.50;99.90
12634;DHT22;6382;48.614;8.880;2023-02-28T00:02:53;-2.50;99.90
12634;DHT22;6382;48.614;8.880;2023-02-28T00:05:21;-2.60;99.90
12634;DHT22;6382;48.614;8.880;2023-02-28T00:07:48;-2.60;99.90
12634;DHT22;6382;48.614;8.880;2023-02-28T00:10:19;-2.60;99.90
12634;DHT22;6382;48.614;8.880;2023-02-28T00:12:47;-2.60;99.90
12634;DHT22;6382;48.614;8.880;2023-02-28T00:15:14;-2.70;99.90
12634;DHT22;6382;48.614;8.880;2023-02-28T00:17:41;-2.70;99.90
12634;DHT22;6382;48.614;8.880;2023-02-28T00:20:08;-2.70;99.90
12634;DHT22;6382;48.614;8.880;2023-02-28T00:22:37;-2.80;99.90
12634;DHT22;6382;48.614;8.880;2023-02-28T00:25:04;-2.80;99.90
12634;DHT22;6382;48.614;8.880;2023-02-28T00:27:31;-2.80;99.90
12634;DHT22;6382;48.614;8.880;2023-02-28T00:29:57;-2.80;99.90
12634;DHT22;6382;48.614;8.880;2023-02-28T00:32:24;-2.80;99.90
12634;DHT22;6382;48.614;8.880;2023-02-28T00:34:50;-2.90;99.90
12634;DHT22;6382;48.614;8.880;2023-02-28T00:37:17;-2.90;99.90
12634;DHT22;6382;48.614;8.880;2023-02-28T00:39:44;-3.00;99.90
12634;DHT22;6382;48.614;8.880;2023-02-28T00:42:10;-3.00;99.90
12634;DHT22;6382;48.614;8.880;2023-02-28T00:44:37;-3.10;99.90
12634;DHT22;6382;48.614;8.880;2023-02-28T00:47:04;-3.10;99.90
12634;DHT22;6382;48.614;8.880;2023-02-28T00:49:31;-3.10;99.90
12634;DHT22;6382;48.614;8.880;2023-02-28T00:51:57;-3.10;99.90
12634;DHT22;6382;48.614;8.880;2023-02-28T00:54:24;-3.20;99.90
12634;DHT22;6382;48.614;8.880;2023-02-28T00:56:51;-3.20;99.90
12634;DHT22;6382;48.614;8.880;2023-02-28T00:59:17;-3.20;99.90
12634;DHT22;6382;48.614;8.880;2023-02-28T01:01:45;-3.30;99.90
12634;DHT22;6382;48.614;8.880;2023-02-28T01:04:12;-3.30;99.90
12634;DHT22;6382;48.614;8.880;2023-02-28T01:06:39;-3.30;99.90
12634;DHT22;6382;48.614;8.880;2023-02-28T01:09:06;-3.30;99.90
12634;DHT22;6382;48.614;8.880;2023-02-28T01:11:34;-3.40;99.90
12634;DHT22;6382;48.614;8.880;2023-02-28T01:14:01;-3.40;99.90
12634;DHT22;6382;48.614;8.880;2023-02-28T01:16:27;-3.40;99.90
12634;DHT22;6382;48.614;8.880;2023-02-28T01:18:54;-3.40;99.90
12634;DHT22;6382;48.614;8.880;2023-02-28T01:21:21;-3.40;99.90
12634;DHT22;6382;48.614;8.880;2023-02-28T01:23:48;-3.40;99.90
12634;DHT22;6382;48.614;8.880;2023-02-28T01:28:41;-3.40;99.90
12634;DHT22;6382;48.614;8.880;2023-02-28T01:31:08;-3.50;99.90
12634;DHT22;6382;48.614;8.880;2023-02-28T01:33:35;-3.50;99.90
12634;DHT22;6382;48.614;8.880;2023-02-28T01:36:03;-3.50;99.90
12634;DHT22;6382;48.614;8.880;2023-02-28T01:38:30;-3.50;99.90
12634;DHT22;6382;48.614;8.880;2023-02-28T01:40:57;-3.50;99.90
12634;DHT22;6382;48.614;8.880;2023-02-28T01:43:25;-3.50;99.90
12634;DHT22;6382;48.614;8.880;2023-02-28T01:45:52;-3.50;99.90
12634;DHT22;6382;48.614;8.880;2023-02-28T01:48:21;-3.50;99.90
12634;DHT22;6382;48.614;8.880;2023-02-28T01:50:48;-3.50;99.90
12634;DHT22;6382;48.614;8.880;2023-02-28T01:53:17;-3.60;99.90
12634;DHT22;6382;48.614;8.880;2023-02-28T01:55:45;-3.60;99.90
12634;DHT22;6382;48.614;8.880;2023-02-28T01:58:13;-3.60;99.90
12634;DHT22;6382;48.614;8.880;2023-02-28T02:00:40;-3.60;99.90
12634;DHT22;6382;48.614;8.880;2023-02-28T02:03:09;-3.60;99.90
12634;DHT22;6382;48.614;8.880;2023-02-28T02:05:38;-3.60;99.90
12634;DHT22;6382;48.614;8.880;2023-02-28T02:08:07;-3.60;99.90
12634;DHT22;6382;48.614;8.880;2023-02-28T02:10:36;-3.60;99.90
12634;DHT22;6382;48.614;8.880;2023-02-28T02:29:44;-3.70;99.90
12634;DHT22;6382;48.614;8.880;2023-02-28T02:32:02;-3.70;99.90
12634;DHT22;6382;48.614;8.880;2023-02-28T02:34:38;-3.70;99.90
12634;DHT22;6382;48.614;8.880;2023-02-28T02:42:14;-3.70;99.90
12634;DHT22;6382;48.614;8.880;2023-02-28T02:44:53;-3.60;99.90
12634;DHT22;6382;48.614;8.880;2023-02-28T02:47:22;-3.70;99.90
12634;DHT22;6382;48.614;8.880;2023-02-28T02:49:51;-3.70;99.90
12634;DHT22;6382;48.614;8.880;2023-02-28T02:52:20;-3.60;99.90
12634;DHT22;6382;48.614;8.880;2023-02-28T02:54:48;-3.70;99.90
12634;DHT22;6382;48.614;8.880;2023-02-28T02:57:18;-3.60;99.90
12634;DHT22;6382;48.614;8.880;2023-02-28T02:59:47;-3.70;99.90
12634;DHT22;6382;48.614;8.880;2023-02-28T03:02:16;-3.60;99.90
12634;DHT22;6382;48.614;8.880;2023-02-28T03:04:53;-3.60;99.90
12634;DHT22;6382;48.614;8.880;2023-02-28T03:07:27;-3.60;99.90
12634;DHT22;6382;48.614;8.880;2023-02-28T03:09:54;-3.60;99.90
12634;DHT22;6382;48.614;8.880;2023-02-28T03:12:22;-3.60;99.90
12634;DHT22;6382;48.614;8.880;2023-02-28T03:19:49;-3.50;99.90
12634;DHT22;6382;48.614;8.880;2023-02-28T03:24:49;-3.50;99.90
12634;DHT22;6382;48.614;8.880;2023-02-28T03:27:23;-3.50;99.90
12634;DHT22;6382;48.614;8.880;2023-02-28T03:29:52;-3.50;99.90
12634;DHT22;6382;48.614;8.880;2023-02-28T03:37:38;-3.50;99.90
12634;DHT22;6382;48.614;8.880;2023-02-28T03:40:10;-3.40;99.90
12634;DHT22;6382;48.614;8.880;2023-02-28T03:42:40;-3.40;99.90
12634;DHT22;6382;48.614;8.880;2023-02-28T03:45:10;-3.40;99.90
12634;DHT22;6382;48.614;8.880;2023-02-28T03:47:41;-3.40;99.90
12634;DHT22;6382;48.614;8.880;2023-02-28T03:50:21;-3.40;99.90
12634;DHT22;6382;48.614;8.880;2023-02-28T03:53:33;-3.40;99.90
12634;DHT22;6382;48.614;8.880;2023-02-28T03:55:49;-3.40;99.90
12634;DHT22;6382;48.614;8.880;2023-02-28T03:58:21;-2.40;99.90
12634;DHT22;6382;48.614;8.880;2023-02-28T04:01:00;-3.30;99.90
12634;DHT22;6382;48.614;8.880;2023-02-28T04:03:36;-3.30;99.90
12634;DHT22;6382;48.614;8.880;2023-02-28T04:06:03;-3.30;99.90
12634;DHT22;6382;48.614;8.880;2023-02-28T04:08:30;-3.30;99.90
12634;DHT22;6382;48.614;8.880;2023-02-28T04:11:01;-3.30;99.90
12634;DHT22;6382;48.614;8.880;2023-02-28T04:27:00;-3.10;99.90
12634;DHT22;6382;48.614;8.880;2023-02-28T04:29:27;-3.00;99.90
12634;DHT22;6382;48.614;8.880;2023-02-28T04:31:55;-3.00;99.90
12634;DHT22;6382;48.614;8.880;2023-02-28T04:34:25;-3.00;99.90
12634;DHT22;6382;48.614;8.880;2023-02-28T04:36:52;-3.00;99.90
12634;DHT22;6382;48.614;8.880;2023-02-28T04:39:37;-2.20;99.90
12634;DHT22;6382;48.614;8.880;2023-02-28T04:42:04;-3.00;99.90
12634;DHT22;6382;48.614;8.880;2023-02-28T04:44:31;-2.60;99.90
12634;DHT22;6382;48.614;8.880;2023-02-28T04:46:58;-2.90;99.90
12634;DHT22;6382;48.614;8.880;2023-02-28T04:49:25;-3.00;99.90
12634;DHT22;6382;48.614;8.880;2023-02-28T04:51:52;-3.00;99.90
12634;DHT22;6382;48.614;8.880;2023-02-28T04:54:19;-3.00;99.90
12634;DHT22;6382;48.614;8.880;2023-02-28T04:56:46;-2.90;99.90
12634;DHT22;6382;48.614;8.880;2023-02-28T04:59:14;-2.90;99.90
12634;DHT22;6382;48.614;8.880;2023-02-28T05:01:45;-2.90;99.90
12634;DHT22;6382;48.614;8.880;2023-02-28T05:04:12;-3.00;99.90
12634;DHT22;6382;48.614;8.880;2023-02-28T05:06:39;-2.90;99.90
12634;DHT22;6382;48.614;8.880;2023-02-28T05:09:05;-0.90;99.90
12634;DHT22;6382;48.614;8.880;2023-02-28T05:11:33;-2.90;99.90
12634;DHT22;6382;48.614;8.880;2023-02-28T05:14:03;-2.90;99.90
12634;DHT22;6382;48.614;8.880;2023-02-28T05:16:30;-2.90;99.90
12634;DHT22;6382;48.614;8.880;2023-02-28T05:18:57;-2.90;99.90
12634;DHT22;6382;48.614;8.880;2023-02-28T05:21:26;-2.80;99.90
12634;DHT22;6382;48.614;8.880;2023-02-28T05:23:54;-2.90;99.90
12634;DHT22;6382;48.614;8.880;2023-02-28T05:26:21;-2.90;99.90
12634;DHT22;6382;48.614;8.880;2023-02-28T05:28:48;-2.90;99.90
12634;DHT22;6382;48.614;8.880;2023-02-28T05:31:15;-2.90;99.90
12634;DHT22;6382;48.614;8.880;2023-02-28T05:33:42;-2.90;99.90
12634;DHT22;6382;48.614;8.880;2023-02-28T05:36:09;0.30;99.90
12634;DHT22;6382;48.614;8.880;2023-02-28T05:38:35;-2.80;99.90
12634;DHT22;6382;48.614;8.880;2023-02-28T05:41:05;-2.90;99.90
12634;DHT22;6382;48.614;8.880;2023-02-28T05:43:31;-2.90;99.90
12634;DHT22;6382;48.614;8.880;2023-02-28T05:45:58;-2.90;99.90
12634;DHT22;6382;48.614;8.880;2023-02-28T05:48:25;-2.90;99.90
12634;DHT22;6382;48.614;8.880;2023-02-28T05:50:52;-2.90;99.90
12634;DHT22;6382;48.614;8.880;2023-02-28T05:53:19;-2.90;99.90
12634;DHT22;6382;48.614;8.880;2023-02-28T05:55:46;-2.90;99.90
12634;DHT22;6382;48.614;8.880;2023-02-28T05:58:12;-2.90;99.90
12634;DHT22;6382;48.614;8.880;2023-02-28T06:00:39;-2.90;99.90
12634;DHT22;6382;48.614;8.880;2023-02-28T06:03:07;-2.90;99.90
12634;DHT22;6382;48.614;8.880;2023-02-28T06:05:34;-2.90;99.90
12634;DHT22;6382;48.614;8.880;2023-02-28T06:08:01;-3.00;99.90
12634;DHT22;6382;48.614;8.880;2023-02-28T06:10:28;-2.90;99.90
12634;DHT22;6382;48.614;8.880;2023-02-28T06:12:54;-2.90;99.90
12634;DHT22;6382;48.614;8.880;2023-02-28T06:15:21;-0.80;99.90
12634;DHT22;6382;48.614;8.880;2023-02-28T06:17:48;-0.50;99.90
12634;DHT22;6382;48.614;8.880;2023-02-28T06:20:15;-2.90;99.90
12634;DHT22;6382;48.614;8.880;2023-02-28T06:22:41;-3.00;99.90
12634;DHT22;6382;48.614;8.880;2023-02-28T06:25:09;-3.00;99.90
12634;DHT22;6382;48.614;8.880;2023-02-28T06:27:36;-2.90;99.90
12634;DHT22;6382;48.614;8.880;2023-02-28T06:30:03;-2.90;99.90
12634;DHT22;6382;48.614;8.880;2023-02-28T06:32:30;-2.90;99.90
12634;DHT22;6382;48.614;8.880;2023-02-28T06:34:57;-0.30;99.90
12634;DHT22;6382;48.614;8.880;2023-02-28T06:37:24;-2.90;99.90
12634;DHT22;6382;48.614;8.880;2023-02-28T06:39:54;-1.20;99.90
12634;DHT22;6382;48.614;8.880;2023-02-28T06:42:22;-2.90;99.90
12634;DHT22;6382;48.614;8.880;2023-02-28T06:44:52;-2.90;99.90
12634;DHT22;6382;48.614;8.880;2023-02-28T06:47:19;-2.90;99.90
12634;DHT22;6382;48.614;8.880;2023-02-28T06:49:45;-2.90;99.90
12634;DHT22;6382;48.614;8.880;2023-02-28T06:52:12;-2.80;99.90
12634;DHT22;6382;48.614;8.880;2023-02-28T06:54:39;-2.90;99.90
12634;DHT22;6382;48.614;8.880;2023-02-28T06:57:06;-2.80;99.90
12634;DHT22;6382;48.614;8.880;2023-02-28T06:59:33;-2.80;99.90
12634;DHT22;6382;48.614;8.880;2023-02-28T07:02:01;-2.80;99.90
12634;DHT22;6382;48.614;8.880;2023-02-28T07:04:28;-2.20;99.90
12634;DHT22;6382;48.614;8.880;2023-02-28T07:06:55;-2.70;99.90
12634;DHT22;6382;48.614;8.880;2023-02-28T07:09:23;-2.70;99.90
12634;DHT22;6382;48.614;8.880;2023-02-28T07:11:50;-2.60;99.90
12634;DHT22;6382;48.614;8.880;2023-02-28T07:14:16;-2.60;99.90
12634;DHT22;6382;48.614;8.880;2023-02-28T07:16:43;-2.50;99.90
12634;DHT22;6382;48.614;8.880;2023-02-28T07:19:12;-2.50;99.90
12634;DHT22;6382;48.614;8.880;2023-02-28T07:21:39;-2.50;99.90
12634;DHT22;6382;48.614;8.880;2023-02-28T07:24:06;-2.50;99.90
12634;DHT22;6382;48.614;8.880;2023-02-28T07:26:32;-2.40;99.90
12634;DHT22;6382;48.614;8.880;2023-02-28T07:29:01;-2.40;99.90
12634;DHT22;6382;48.614;8.880;2023-02-28T07:31:28;-2.30;99.90
12634;DHT22;6382;48.614;8.880;2023-02-28T07:33:55;-2.30;99.90
12634;DHT22;6382;48.614;8.880;2023-02-28T07:36:22;-2.30;99.90
12634;DHT22;6382;48.614;8.880;2023-02-28T07:38:49;-2.30;99.90
12634;DHT22;6382;48.614;8.880;2023-02-28T07:41:20;-2.20;99.90
12634;DHT22;6382;48.614;8.880;2023-02-28T07:43:47;-2.20;99.90
12634;DHT22;6382;48.614;8.880;2023-02-28T07:46:15;-2.20;99.90
12634;DHT22;6382;48.614;8.880;2023-02-28T07:48:42;-1.30;99.90
12634;DHT22;6382;48.614;8.880;2023-02-28T07:51:08;-2.20;99.90
12634;DHT22;6382;48.614;8.880;2023-02-28T07:53:35;-2.10;99.90
12634;DHT22;6382;48.614;8.880;2023-02-28T07:56:02;-2.10;99.90
12634;DHT22;6382;48.614;8.880;2023-02-28T07:58:29;-2.00;99.90
12634;DHT22;6382;48.614;8.880;2023-02-28T08:00:56;-2.10;99.90
12634;DHT22;6382;48.614;8.880;2023-02-28T08:03:24;-2.00;99.90
12634;DHT22;6382;48.614;8.880;2023-02-28T08:05:51;-2.00;99.90
12634;DHT22;6382;48.614;8.880;2023-02-28T08:08:19;-2.00;99.90
12634;DHT22;6382;48.614;8.880;2023-02-28T08:10:45;-1.90;99.90
12634;DHT22;6382;48.614;8.880;2023-02-28T08:13:12;-2.00;99.90
12634;DHT22;6382;48.614;8.880;2023-02-28T08:15:40;-1.90;99.90
12634;DHT22;6382;48.614;8.880;2023-02-28T08:18:07;-1.90;99.90
12634;DHT22;6382;48.614;8.880;2023-02-28T08:20:35;-1.90;99.90
12634;DHT22;6382;48.614;8.880;2023-02-28T08:23:01;-1.90;99.90
12634;DHT22;6382;48.614;8.880;2023-02-28T08:25:28;-1.80;99.90
12634;DHT22;6382;48.614;8.880;2023-02-28T08:27:55;-1.90;99.90
12634;DHT22;6382;48.614;8.880;2023-02-28T08:30:21;-1.80;99.90
12634;DHT22;6382;48.614;8.880;2023-02-28T08:32:48;-0.50;99.90
12634;DHT22;6382;48.614;8.880;2023-02-28T08:35:20;-1.80;99.90
12634;DHT22;6382;48.614;8.880;2023-02-28T08:37:55;-1.80;99.90
12634;DHT22;6382;48.614;8.880;2023-02-28T08:40:21;-1.80;99.90
12634;DHT22;6382;48.614;8.880;2023-02-28T08:42:48;-1.70;99.90
12634;DHT22;6382;48.614;8.880;2023-02-28T08:45:16;-1.70;99.90
12634;DHT22;6382;48.614;8.880;2023-02-28T08:47:42;-1.70;99.90
12634;DHT22;6382;48.614;8.880;2023-02-28T08:50:09;-1.70;99.90
12634;DHT22;6382;48.614;8.880;2023-02-28T08:52:36;-1.70;99.90
12634;DHT22;6382;48.614;8.880;2023-02-28T08:55:05;-1.70;99.90
12634;DHT22;6382;48.614;8.880;2023-02-28T08:57:32;-1.60;99.90
12634;DHT22;6382;48.614;8.880;2023-02-28T08:59:59;-0.30;99.90
12634;DHT22;6382;48.614;8.880;2023-02-28T09:02:26;-1.60;99.90
12634;DHT22;6382;48.614;8.880;2023-02-28T09:04:53;-1.50;99.90
12634;DHT22;6382;48.614;8.880;2023-02-28T09:07:19;-0.70;99.90
12634;DHT22;6382;48.614;8.880;2023-02-28T09:09:46;-1.40;99.90
12634;DHT22;6382;48.614;8.880;2023-02-28T09:12:22;-1.40;99.90
12634;DHT22;6382;48.614;8.880;2023-02-28T09:14:49;-1.40;99.90
12634;DHT22;6382;48.614;8.880;2023-02-28T09:17:16;-1.40;99.90
12634;DHT22;6382;48.614;8.880;2023-02-28T09:19:43;-1.40;99.90
12634;DHT22;6382;48.614;8.880;2023-02-28T09:22:10;-0.70;99.90
12634;DHT22;6382;48.614;8.880;2023-02-28T09:24:37;-1.40;99.90
12634;DHT22;6382;48.614;8.880;2023-02-28T09:27:04;-1.40;99.90
12634;DHT22;6382;48.614;8.880;2023-02-28T09:29:33;-1.00;99.90
12634;DHT22;6382;48.614;8.880;2023-02-28T09:32:00;-1.30;99.90
12634;DHT22;6382;48.614;8.880;2023-02-28T09:34:27;-1.20;99.90
12634;DHT22;6382;48.614;8.880;2023-02-28T09:36:57;-1.20;99.90
12634;DHT22;6382;48.614;8.880;2023-02-28T09:39:24;1.60;99.90
12634;DHT22;6382;48.614;8.880;2023-02-28T09:41:54;-1.10;99.90
12634;DHT22;6382;48.614;8.880;2023-02-28T09:44:31;-1.00;99.90
12634;DHT22;6382;48.614;8.880;2023-02-28T09:47:05;-1.10;99.90
12634;DHT22;6382;48.614;8.880;2023-02-28T09:49:38;-1.10;99.90
12634;DHT22;6382;48.614;8.880;2023-02-28T09:52:09;-1.00;99.90
12634;DHT22;6382;48.614;8.880;2023-02-28T09:54:37;-1.00;99.90
12634;DHT22;6382;48.614;8.880;2023-02-28T10:04:46;-0.70;99.90
12634;DHT22;6382;48.614;8.880;2023-02-28T10:07:25;-0.70;99.90
12634;DHT22;6382;48.614;8.880;2023-02-28T10:09:54;-0.60;99.90
12634;DHT22;6382;48.614;8.880;2023-02-28T10:12:21;-0.70;99.90
12634;DHT22;6382;48.614;8.880;2023-02-28T10:14:49;-0.80;99.90
12634;DHT22;6382;48.614;8.880;2023-02-28T10:17:24;-0.80;99.90
12634;DHT22;6382;48.614;8.880;2023-02-28T10:22:29;-0.80;99.90
12634;DHT22;6382;48.614;8.880;2023-02-28T10:24:58;-0.80;99.90
12634;DHT22;6382;48.614;8.880;2023-02-28T10:27:32;-0.70;99.90
12634;DHT22;6382;48.614;8.880;2023-02-28T10:29:59;1.70;99.90
12634;DHT22;6382;48.614;8.880;2023-02-28T10:32:27;-0.60;99.90
12634;DHT22;6382;48.614;8.880;2023-02-28T10:37:33;-0.50;99.90
12634;DHT22;6382;48.614;8.880;2023-02-28T10:40:06;-0.40;99.90
12634;DHT22;6382;48.614;8.880;2023-02-28T10:42:34;-1.90;99.90
12634;DHT22;6382;48.614;8.880;2023-02-28T10:45:07;-0.40;99.90
12634;DHT22;6382;48.614;8.880;2023-02-28T10:47:34;-0.40;99.90
12634;DHT22;6382;48.614;8.880;2023-02-28T10:50:05;-0.40;99.90
12634;DHT22;6382;48.614;8.880;2023-02-28T10:52:33;-0.30;99.90
12634;DHT22;6382;48.614;8.880;2023-02-28T10:55:22;-0.20;99.90
12634;DHT22;6382;48.614;8.880;2023-02-28T10:57:49;-0.20;99.90
12634;DHT22;6382;48.614;8.880;2023-02-28T11:00:18;0.00;99.90
12634;DHT22;6382;48.614;8.880;2023-02-28T11:02:45;1.00;99.90
12634;DHT22;6382;48.614;8.880;2023-02-28T11:05:32;0.10;99.90
12634;DHT22;6382;48.614;8.880;2023-02-28T11:08:15;0.00;99.90
12634;DHT22;6382;48.614;8.880;2023-02-28T11:10:53;0.00;99.90
12634;DHT22;6382;48.614;8.880;2023-02-28T11:13:20;0.00;99.90
12634;DHT22;6382;48.614;8.880;2023-02-28T11:15:50;0.00;99.90
12634;DHT22;6382;48.614;8.880;2023-02-28T11:18:22;0.10;99.90
12634;DHT22;6382;48.614;8.880;2023-02-28T11:20:51;0.10;99.90
12634;DHT22;6382;48.614;8.880;2023-02-28T11:23:19;0.20;99.90
12634;DHT22;6382;48.614;8.880;2023-02-28T11:25:47;0.20;99.90
12634;DHT22;6382;48.614;8.880;2023-02-28T11:31:01;0.40;99.90
12634;DHT22;6382;48.614;8.880;2023-02-28T11:33:29;0.40;99.90
12634;DHT22;6382;48.614;8.880;2023-02-28T11:35:58;0.60;99.90
12634;DHT22;6382;48.614;8.880;2023-02-28T11:38:26;0.50;99.90
12634;DHT22;6382;48.614;8.880;2023-02-28T11:46:14;0.70;99.90
12634;DHT22;6382;48.614;8.880;2023-02-28T11:49:10;0.80;99.90
12634;DHT22;6382;48.614;8.880;2023-02-28T11:51:59;1.00;99.90
12634;DHT22;6382;48.614;8.880;2023-02-28T11:59:54;1.20;99.90
12634;DHT22;6382;48.614;8.880;2023-02-28T12:02:40;1.20;99.90
12634;DHT22;6382;48.614;8.880;2023-02-28T12:05:13;1.10;99.90
12634;DHT22;6382;48.614;8.880;2023-02-28T12:10:25;1.10;99.90
12634;DHT22;6382;48.614;8.880;2023-02-28T12:26:11;1.20;99.90
12634;DHT22;6382;48.614;8.880;2023-02-28T12:28:43;1.20;99.90
12634;DHT22;6382;48.614;8.880;2023-02-28T12:31:12;1.10;99.90
12634;DHT22;6382;48.614;8.880;2023-02-28T12:33:42;1.00;99.90
12634;DHT22;6382;48.614;8.880;2023-02-28T12:36:10;0.90;99.90
12634;DHT22;6382;48.614;8.880;2023-02-28T12:38:43;1.00;99.90
12634;DHT22;6382;48.614;8.880;2023-02-28T12:44:04;1.10;99.90
12634;DHT22;6382;48.614;8.880;2023-02-28T12:46:33;1.20;99.90
12634;DHT22;6382;48.614;8.880;2023-02-28T12:49:05;1.30;99.90
12634;DHT22;6382;48.614;8.880;2023-02-28T12:51:32;1.40;99.90
12634;DHT22;6382;48.614;8.880;2023-02-28T12:56:58;1.50;99.90
12634;DHT22;6382;48.614;8.880;2023-02-28T13:04:29;1.90;99.90
12634;DHT22;6382;48.614;8.880;2023-02-28T13:09:51;2.10;99.90
12634;DHT22;6382;48.614;8.880;2023-02-28T13:12:18;2.20;99.90
12634;DHT22;6382;48.614;8.880;2023-02-28T13:14:48;2.10;99.90
12634;DHT22;6382;48.614;8.880;2023-02-28T13:17:25;2.20;99.90
12634;DHT22;6382;48.614;8.880;2023-02-28T13:22:20;2.20;99.90
12634;DHT22;6382;48.614;8.880;2023-02-28T13:27:52;2.20;99.90
12634;DHT22;6382;48.614;8.880;2023-02-28T13:31:09;2.30;99.90
12634;DHT22;6382;48.614;8.880;2023-02-28T13:35:46;2.50;99.90
12634;DHT22;6382;48.614;8.880;2023-02-28T13:38:17;2.60;99.90
12634;DHT22;6382;48.614;8.880;2023-02-28T13:40:44;2.60;99.90
12634;DHT22;6382;48.614;8.880;2023-02-28T13:43:10;2.60;99.90
12634;DHT22;6382;48.614;8.880;2023-02-28T13:45:37;2.70;99.90
12634;DHT22;6382;48.614;8.880;2023-02-28T13:50:46;3.00;99.90
12634;DHT22;6382;48.614;8.880;2023-02-28T13:55:52;3.10;99.90
12634;DHT22;6382;48.614;8.880;2023-02-28T14:01:06;2.80;99.90
12634;DHT22;6382;48.614;8.880;2023-02-28T14:03:44;2.80;99.90
12634;DHT22;6382;48.614;8.880;2023-02-28T14:06:32;2.70;99.90
12634;DHT22;6382;48.614;8.880;2023-02-28T14:11:40;2.80;99.90
12634;DHT22;6382;48.614;8.880;2023-02-28T14:14:08;2.90;99.90
12634;DHT22;6382;48.614;8.880;2023-02-28T14:16:43;2.90;99.90
12634;DHT22;6382;48.614;8.880;2023-02-28T14:19:12;3.00;99.90
12634;DHT22;6382;48.614;8.880;2023-02-28T14:21:43;3.10;99.90
12634;DHT22;6382;48.614;8.880;2023-02-28T14:24:22;3.10;99.90
12634;DHT22;6382;48.614;8.880;2023-02-28T14:31:55;2.90;99.90
12634;DHT22;6382;48.614;8.880;2023-02-28T14:36:53;2.90;99.90
12634;DHT22;6382;48.614;8.880;2023-02-28T14:39:24;3.00;99.90
12634;DHT22;6382;48.614;8.880;2023-02-28T14:41:51;3.00;99.90
12634;DHT22;6382;48.614;8.880;2023-02-28T14:44:19;3.00;99.90
12634;DHT22;6382;48.614;8.880;2023-02-28T14:46:48;3.10;99.90
12634;DHT22;6382;48.614;8.880;2023-02-28T14:51:45;3.20;99.90
12634;DHT22;6382;48.614;8.880;2023-02-28T14:54:16;3.20;99.90
12634;DHT22;6382;48.614;8.880;2023-02-28T14:56:48;3.30;99.90
12634;DHT22;6382;48.614;8.880;2023-02-28T14:59:23;3.30;99.90
12634;DHT22;6382;48.614;8.880;2023-02-28T15:01:52;3.30;99.90
12634;DHT22;6382;48.614;8.880;2023-02-28T15:04:26;3.30;99.90
12634;DHT22;6382;48.614;8.880;2023-02-28T15:07:15;3.40;99.90
12634;DHT22;6382;48.614;8.880;2023-02-28T15:09:40;6.10;99.90
12634;DHT22;6382;48.614;8.880;2023-02-28T15:12:07;3.40;99.90
12634;DHT22;6382;48.614;8.880;2023-02-28T15:14:38;3.40;99.90
12634;DHT22;6382;48.614;8.880;2023-02-28T15:17:06;3.40;99.90
12634;DHT22;6382;48.614;8.880;2023-02-28T15:19:36;3.30;99.90
12634;DHT22;6382;48.614;8.880;2023-02-28T15:22:04;3.40;99.90
12634;DHT22;6382;48.614;8.880;2023-02-28T15:24:40;3.40;99.90
12634;DHT22;6382;48.614;8.880;2023-02-28T15:27:13;3.40;99.90
12634;DHT22;6382;48.614;8.880;2023-02-28T15:29:43;3.40;99.90
12634;DHT22;6382;48.614;8.880;2023-02-28T15:32:20;3.40;99.90
12634;DHT22;6382;48.614;8.880;2023-02-28T15:34:47;3.40;99.90
12634;DHT22;6382;48.614;8.880;2023-02-28T15:42:40;3.40;99.90
12634;DHT22;6382;48.614;8.880;2023-02-28T15:45:25;3.40;99.90
12634;DHT22;6382;48.614;8.880;2023-02-28T15:47:52;3.30;99.90
12634;DHT22;6382;48.614;8.880;2023-02-28T15:50:21;3.40;99.90
12634;DHT22;6382;48.614;8.880;2023-02-28T15:52:48;3.40;99.90
12634;DHT22;6382;48.614;8.880;2023-02-28T15:55:26;3.40;99.90
12634;DHT22;6382;48.614;8.880;2023-02-28T15:57:54;3.30;99.90
12634;DHT22;6382;48.614;8.880;2023-02-28T16:00:24;3.30;99.90
12634;DHT22;6382;48.614;8.880;2023-02-28T16:02:51;3.30;99.90
12634;DHT22;6382;48.614;8.880;2023-02-28T16:05:26;3.30;99.90
12634;DHT22;6382;48.614;8.880;2023-02-28T16:08:00;3.30;99.90
12634;DHT22;6382;48.614;8.880;2023-02-28T16:10:27;3.30;99.90
12634;DHT22;6382;48.614;8.880;2023-02-28T16:12:55;3.30;99.90
12634;DHT22;6382;48.614;8.880;2023-02-28T16:15:29;3.30;99.90
12634;DHT22;6382;48.614;8.880;2023-02-28T16:17:57;3.20;99.90
12634;DHT22;6382;48.614;8.880;2023-02-28T16:20:25;3.20;99.90
12634;DHT22;6382;48.614;8.880;2023-02-28T16:22:52;3.20;99.90
12634;DHT22;6382;48.614;8.880;2023-02-28T16:25:20;3.20;99.90
12634;DHT22;6382;48.614;8.880;2023-02-28T16:27:48;3.10;99.90
12634;DHT22;6382;48.614;8.880;2023-02-28T16:30:20;3.10;99.90
12634;DHT22;6382;48.614;8.880;2023-02-28T16:32:48;3.00;99.90
12634;DHT22;6382;48.614;8.880;2023-02-28T16:35:15;3.00;99.90
12634;DHT22;6382;48.614;8.880;2023-02-28T16:37:44;3.00;99.90
12634;DHT22;6382;48.614;8.880;2023-02-28T16:40:17;2.90;99.90
12634;DHT22;6382;48.614;8.880;2023-02-28T16:42:44;2.90;99.90
12634;DHT22;6382;48.614;8.880;2023-02-28T16:45:15;2.90;99.90
12634;DHT22;6382;48.614;8.880;2023-02-28T16:47:42;2.80;99.90
12634;DHT22;6382;48.614;8.880;2023-02-28T16:50:12;2.80;99.90
12634;DHT22;6382;48.614;8.880;2023-02-28T16:52:39;2.70;99.90
12634;DHT22;6382;48.614;8.880;2023-02-28T16:55:05;2.70;99.90
12634;DHT22;6382;48.614;8.880;2023-02-28T16:57:32;2.60;99.90
12634;DHT22;6382;48.614;8.880;2023-02-28T16:59:59;2.60;99.90
12634;DHT22;6382;48.614;8.880;2023-02-28T17:02:26;2.50;99.90
12634;DHT22;6382;48.614;8.880;2023-02-28T17:04:52;2.40;99.90
12634;DHT22;6382;48.614;8.880;2023-02-28T17:07:19;2.40;99.90
12634;DHT22;6382;48.614;8.880;2023-02-28T17:09:46;2.30;99.90
12634;DHT22;6382;48.614;8.880;2023-02-28T17:12:12;2.20;99.90
12634;DHT22;6382;48.614;8.880;2023-02-28T17:14:39;2.10;99.90
12634;DHT22;6382;48.614;8.880;2023-02-28T17:17:06;2.10;99.90
12634;DHT22;6382;48.614;8.880;2023-02-28T17:19:33;2.00;99.90
12634;DHT22;6382;48.614;8.880;2023-02-28T17:22:01;1.90;99.90
12634;DHT22;6382;48.614;8.880;2023-02-28T17:24:27;1.90;99.90
12634;DHT22;6382;48.614;8.880;2023-02-28T17:26:56;1.80;99.90
12634;DHT22;6382;48.614;8.880;2023-02-28T17:29:23;1.80;99.90
12634;DHT22;6382;48.614;8.880;2023-02-28T17:31:50;1.70;99.90
12634;DHT22;6382;48.614;8.880;2023-02-28T17:34:17;1.60;99.90
12634;DHT22;6382;48.614;8.880;2023-02-28T17:36:46;1.60;99.90
12634;DHT22;6382;48.614;8.880;2023-02-28T17:39:13;1.50;99.90
12634;DHT22;6382;48.614;8.880;2023-02-28T17:41:40;1.50;99.90
12634;DHT22;6382;48.614;8.880;2023-02-28T17:44:08;1.40;99.90
12634;DHT22;6382;48.614;8.880;2023-02-28T17:46:35;1.40;99.90
12634;DHT22;6382;48.614;8.880;2023-02-28T17:49:02;1.30;99.90
12634;DHT22;6382;48.614;8.880;2023-02-28T17:51:29;1.30;99.90
12634;DHT22;6382;48.614;8.880;2023-02-28T17:53:55;1.20;99.90
12634;DHT22;6382;48.614;8.880;2023-02-28T17:56:23;1.20;99.90
12634;DHT22;6382;48.614;8.880;2023-02-28T17:58:50;1.10;99.90
12634;DHT22;6382;48.614;8.880;2023-02-28T18:01:17;1.20;99.90
12634;DHT22;6382;48.614;8.880;2023-02-28T18:03:44;1.10;99.90
12634;DHT22;6382;48.614;8.880;2023-02-28T18:06:23;1.00;99.90
12634;DHT22;6382;48.614;8.880;2023-02-28T18:08:51;1.00;99.90
12634;DHT22;6382;48.614;8.880;2023-02-28T18:11:21;1.00;99.90
12634;DHT22;6382;48.614;8.880;2023-02-28T18:13:49;0.90;99.90
12634;DHT22;6382;48.614;8.880;2023-02-28T18:16:16;0.90;99.90
12634;DHT22;6382;48.614;8.880;2023-02-28T18:18:43;0.90;99.90
12634;DHT22;6382;48.614;8.880;2023-02-28T18:21:11;0.80;99.90
12634;DHT22;6382;48.614;8.880;2023-02-28T18:23:38;0.80;99.90